createdAt,value
2022-12-18T00:01:40.126Z,126.00
2022-12-18T00:04:20.489Z,109.40
2022-12-18T00:06:52.977Z,105.70
2022-12-18T00:09:22.481Z,127.93
2022-12-18T00:11:53.513Z,102.20
2022-12-18T00:14:23.122Z,149.68
2022-12-18T00:16:55.080Z,121.38
2022-12-18T00:19:24.205Z,114.38
2022-12-18T00:21:54.646Z,114.00
2022-12-18T00:24:26.399Z,112.28
2022-12-18T00:26:57.546Z,120.15
2022-12-18T00:29:26.244Z,122.80
2022-12-18T00:31:56.146Z,143.30
2022-12-18T00:34:24.811Z,97.28
2022-12-18T00:36:56.118Z,129.32
2022-12-18T00:39:25.310Z,116.03
2022-12-18T00:42:14.670Z,130.45
2022-12-18T00:44:43.463Z,154.75
2022-12-18T00:47:13.125Z,118.90
2022-12-18T00:49:41.892Z,115.80
2022-12-18T00:52:12.281Z,118.80
2022-12-18T00:54:40.955Z,129.15
2022-12-18T00:57:12.156Z,147.88
2022-12-18T00:59:40.926Z,156.40
2022-12-18T01:02:09.891Z,117.55
2022-12-18T01:04:39.465Z,103.38
2022-12-18T01:07:09.124Z,103.72
2022-12-18T01:09:39.903Z,112.30
2022-12-18T01:12:09.195Z,81.10
2022-12-18T01:14:40.002Z,95.45
2022-12-18T01:17:09.024Z,118.45
2022-12-18T01:19:37.810Z,173.15
2022-12-18T01:22:06.496Z,126.18
2022-12-18T01:24:35.408Z,156.07
2022-12-18T01:27:09.438Z,114.03
2022-12-18T01:29:38.190Z,101.15
2022-12-18T01:32:07.055Z,121.35
2022-12-18T01:34:37.147Z,129.18
2022-12-18T01:37:06.749Z,89.43
2022-12-18T01:39:35.720Z,58.38
2022-12-18T01:42:11.879Z,113.82
2022-12-18T01:44:58.987Z,134.38
2022-12-18T01:47:32.575Z,94.70
2022-12-18T01:50:09.217Z,138.65
2022-12-18T01:52:43.447Z,148.27
2022-12-18T01:55:17.488Z,135.73
2022-12-18T01:57:49.484Z,154.90
2022-12-18T02:00:27.696Z,48.15
2022-12-18T02:02:57.294Z,96.20
2022-12-18T02:05:40.063Z,85.20
2022-12-18T02:08:20.118Z,77.22
2022-12-18T02:10:59.361Z,122.35
2022-12-18T02:13:38.700Z,78.43
2022-12-18T02:16:20.117Z,118.95
2022-12-18T02:18:55.568Z,98.53
2022-12-18T02:21:36.500Z,83.30
2022-12-18T02:24:27.630Z,109.22
2022-12-18T02:27:01.533Z,98.22
2022-12-18T02:29:39.315Z,77.68
2022-12-18T02:32:16.207Z,100.57
2022-12-18T02:34:46.911Z,98.88
2022-12-18T02:37:21.634Z,74.72
2022-12-18T02:39:55.488Z,118.28
2022-12-18T02:42:30.579Z,111.53
2022-12-18T02:45:12.764Z,96.10
2022-12-18T02:47:46.284Z,107.68
2022-12-18T02:50:27.940Z,46.30
2022-12-18T02:53:13.629Z,81.47
2022-12-18T02:55:54.427Z,137.57
2022-12-18T02:58:32.106Z,112.75
2022-12-18T03:01:14.177Z,89.50
2022-12-18T03:03:47.164Z,87.00
2022-12-18T03:06:23.170Z,87.13
2022-12-18T03:09:00.100Z,116.88
2022-12-18T03:11:47.298Z,87.63
2022-12-18T03:14:20.997Z,99.38
2022-12-18T03:17:03.993Z,102.50
2022-12-18T03:19:41.181Z,119.57
2022-12-18T03:22:12.050Z,118.55
2022-12-18T03:24:49.962Z,97.35
2022-12-18T03:27:26.868Z,101.00
2022-12-18T03:30:08.655Z,145.70
2022-12-18T03:32:44.887Z,147.35
2022-12-18T03:35:26.515Z,96.82
2022-12-18T03:37:55.919Z,105.43
2022-12-18T03:40:33.493Z,86.85
2022-12-18T03:43:13.683Z,101.93
2022-12-18T03:45:54.343Z,82.97
2022-12-18T03:48:31.746Z,94.10
2022-12-18T03:51:11.072Z,107.70
2022-12-18T03:53:50.133Z,113.60
2022-12-18T03:56:24.740Z,112.97
2022-12-18T03:58:55.910Z,74.90
2022-12-18T04:01:37.455Z,94.10
2022-12-18T04:04:14.143Z,122.78
2022-12-18T04:06:45.699Z,100.30
2022-12-18T04:09:16.157Z,104.40
2022-12-18T04:11:49.618Z,109.18
2022-12-18T04:14:23.545Z,87.70
2022-12-18T04:16:57.786Z,107.10
2022-12-18T04:19:33.257Z,121.13
2022-12-18T04:22:03.844Z,89.30
2022-12-18T04:24:46.084Z,93.90
2022-12-18T04:27:25.584Z,110.43
2022-12-18T04:29:57.644Z,95.63
2022-12-18T04:32:28.449Z,85.18
2022-12-18T04:34:59.918Z,100.15
2022-12-18T04:37:29.085Z,80.30
2022-12-18T04:39:58.600Z,106.28
2022-12-18T04:42:35.682Z,85.35
2022-12-18T04:45:06.184Z,77.28
2022-12-18T04:47:36.628Z,84.55
2022-12-18T04:50:10.387Z,75.57
2022-12-18T04:52:39.762Z,81.55
2022-12-18T04:55:09.446Z,87.68
2022-12-18T04:57:41.099Z,82.53
2022-12-18T05:00:14.152Z,81.45
2022-12-18T05:02:45.801Z,83.45
2022-12-18T05:05:18.100Z,75.53
2022-12-18T05:07:47.048Z,82.68
2022-12-18T05:10:15.919Z,78.10
2022-12-18T05:13:04.625Z,81.15
2022-12-18T05:15:35.974Z,70.45
2022-12-18T05:18:06.842Z,66.65
2022-12-18T05:20:35.923Z,78.95
2022-12-18T05:23:05.262Z,73.05
2022-12-18T05:25:37.711Z,72.75
2022-12-18T05:28:07.394Z,69.13
2022-12-18T05:30:38.406Z,77.15
2022-12-18T05:33:08.683Z,79.20
2022-12-18T05:35:37.736Z,79.68
2022-12-18T05:38:06.866Z,65.25
2022-12-18T05:40:38.518Z,69.50
2022-12-18T05:43:19.388Z,64.97
2022-12-18T05:45:53.330Z,64.00
2022-12-18T05:48:32.555Z,62.22
2022-12-18T05:51:12.385Z,60.17
2022-12-18T05:53:44.864Z,59.35
2022-12-18T05:56:17.049Z,59.67
2022-12-18T05:58:50.925Z,58.55
2022-12-18T06:01:25.294Z,57.67
2022-12-18T06:03:57.851Z,55.45
2022-12-18T06:06:30.268Z,52.40
2022-12-18T06:08:59.684Z,63.53
2022-12-18T06:11:29.329Z,55.38
2022-12-18T06:13:59.587Z,58.33
2022-12-18T06:16:30.505Z,55.83
2022-12-18T06:19:03.034Z,53.38
2022-12-18T06:21:32.652Z,61.80
2022-12-18T06:24:03.134Z,56.92
2022-12-18T06:26:32.551Z,63.53
2022-12-18T06:29:02.954Z,55.35
2022-12-18T06:31:32.468Z,53.70
2022-12-18T06:34:05.243Z,58.95
2022-12-18T06:36:34.358Z,55.08
2022-12-18T06:39:06.144Z,57.70
2022-12-18T06:41:35.218Z,61.05
2022-12-18T06:44:04.154Z,53.53
2022-12-18T06:46:33.292Z,63.45
2022-12-18T06:49:03.733Z,55.28
2022-12-18T06:51:32.956Z,58.35
2022-12-18T06:54:02.123Z,69.85
2022-12-18T06:56:31.423Z,63.95
2022-12-18T06:59:02.442Z,56.95
2022-12-18T07:01:31.303Z,62.72
2022-12-18T07:04:00.100Z,55.50
2022-12-18T07:06:33.134Z,63.10
2022-12-18T07:09:01.882Z,63.10
2022-12-18T07:11:30.635Z,60.28
2022-12-18T07:13:59.372Z,44.33
2022-12-18T07:16:29.525Z,46.33
2022-12-18T07:19:00.613Z,55.38
2022-12-18T07:21:31.231Z,51.85
2022-12-18T07:24:00.280Z,52.78
2022-12-18T07:26:29.167Z,57.17
2022-12-18T07:28:59.176Z,44.22
2022-12-18T07:31:31.037Z,45.80
2022-12-18T07:34:03.036Z,50.95
2022-12-18T07:36:33.230Z,45.00
2022-12-18T07:39:02.220Z,46.42
2022-12-18T07:41:31.057Z,42.80
2022-12-18T07:44:07.449Z,34.25
2022-12-18T07:46:36.170Z,44.47
2022-12-18T07:49:05.283Z,40.42
2022-12-18T07:51:35.634Z,64.68
2022-12-18T07:54:05.766Z,58.25
2022-12-18T07:56:34.818Z,45.67
2022-12-18T07:59:03.810Z,39.13
2022-12-18T08:01:32.925Z,27.38
2022-12-18T08:04:02.630Z,28.17
2022-12-18T08:06:32.400Z,43.60
2022-12-18T08:09:03.316Z,34.80
2022-12-18T08:11:32.257Z,19.50
2022-12-18T08:14:01.409Z,28.85
2022-12-18T08:16:31.477Z,35.30
2022-12-18T08:19:00.879Z,38.65
2022-12-18T08:21:31.386Z,29.33
2022-12-18T08:24:04.620Z,38.95
2022-12-18T08:26:33.985Z,33.42
2022-12-18T08:29:03.556Z,33.90
2022-12-18T08:31:34.102Z,37.33
2022-12-18T08:34:03.379Z,36.95
2022-12-18T08:36:32.103Z,25.45
2022-12-18T08:39:06.285Z,32.03
2022-12-18T08:41:35.120Z,38.50
2022-12-18T08:44:21.381Z,28.00
2022-12-18T08:46:52.582Z,40.97
2022-12-18T08:49:21.413Z,36.17
2022-12-18T08:51:50.139Z,35.78
2022-12-18T08:54:20.168Z,27.20
2022-12-18T08:56:48.930Z,32.38
2022-12-18T08:59:20.123Z,23.60
2022-12-18T09:01:50.228Z,35.88
2022-12-18T09:04:19.306Z,37.25
2022-12-18T09:06:48.056Z,36.85
2022-12-18T09:09:23.163Z,34.03
2022-12-18T09:11:51.929Z,31.05
2022-12-18T09:14:23.243Z,30.23
2022-12-18T09:16:52.247Z,31.42
2022-12-18T09:19:21.005Z,25.30
2022-12-18T09:21:50.187Z,31.35
2022-12-18T09:24:19.994Z,30.40
2022-12-18T09:26:54.797Z,41.33
2022-12-18T09:29:28.721Z,28.27
2022-12-18T09:32:00.611Z,37.28
2022-12-18T09:34:29.593Z,35.30
2022-12-18T09:37:01.662Z,35.17
2022-12-18T09:39:30.917Z,30.42
2022-12-18T09:42:04.747Z,32.47
2022-12-18T09:44:44.672Z,34.15
2022-12-18T09:47:20.594Z,39.22
2022-12-18T09:52:23.733Z,37.13
2022-12-18T09:55:00.874Z,34.13
2022-12-18T09:57:35.398Z,42.95
2022-12-18T10:00:19.705Z,36.47
2022-12-18T10:02:49.948Z,41.33
2022-12-18T10:05:22.767Z,24.73
2022-12-18T10:07:57.756Z,35.75
2022-12-18T10:10:38.659Z,24.67
2022-12-18T10:13:17.850Z,32.58
2022-12-18T10:15:59.507Z,34.95
2022-12-18T10:18:40.307Z,13.55
2022-12-18T10:23:49.984Z,24.08
2022-12-18T10:26:19.417Z,34.45
2022-12-18T10:28:56.944Z,33.63
2022-12-18T10:31:27.798Z,19.35
2022-12-18T10:33:57.028Z,35.00
2022-12-18T10:36:27.249Z,23.90
2022-12-18T10:38:55.947Z,35.75
2022-12-18T10:41:29.427Z,35.75
2022-12-18T10:44:29.714Z,40.63
2022-12-18T10:47:11.661Z,53.55
2022-12-18T10:49:51.481Z,34.92
2022-12-18T10:52:23.274Z,39.15
2022-12-18T10:54:54.167Z,28.67
2022-12-18T10:57:35.603Z,40.30
2022-12-18T11:00:27.468Z,36.75
2022-12-18T11:02:57.976Z,32.70
2022-12-18T11:05:32.925Z,43.03
2022-12-18T11:08:03.422Z,33.50
2022-12-18T11:10:34.369Z,25.88
2022-12-18T11:13:15.084Z,35.45
2022-12-18T11:15:46.491Z,34.17
2022-12-18T11:18:27.532Z,36.65
2022-12-18T11:20:59.556Z,32.22
2022-12-18T11:23:29.579Z,32.40
2022-12-18T11:26:01.239Z,28.40
2022-12-18T11:28:37.895Z,40.08
2022-12-18T11:31:21.125Z,37.03
2022-12-18T11:34:26.752Z,31.83
2022-12-18T11:36:48.607Z,29.50
2022-12-18T11:39:22.488Z,35.47
2022-12-18T11:42:12.400Z,30.45
2022-12-18T11:44:49.010Z,28.75
2022-12-18T11:47:31.528Z,31.15
2022-12-18T11:50:04.085Z,33.25
2022-12-18T11:52:40.176Z,29.70
2022-12-18T11:55:16.297Z,33.58
2022-12-18T11:57:54.201Z,27.83
2022-12-18T12:00:24.566Z,27.35
2022-12-18T12:03:25.549Z,18.85
2022-12-18T12:06:10.189Z,28.40
2022-12-18T12:08:51.683Z,24.02
2022-12-18T12:11:29.708Z,32.90
2022-12-18T12:14:12.791Z,31.88
2022-12-18T12:16:53.258Z,29.75
2022-12-18T12:19:36.340Z,29.17
2022-12-18T12:22:18.404Z,26.93
2022-12-18T12:25:01.885Z,27.10
2022-12-18T12:27:40.947Z,26.42
2022-12-18T12:30:12.929Z,31.88
2022-12-18T12:32:55.383Z,32.10
2022-12-18T12:35:34.042Z,33.33
2022-12-18T12:38:13.143Z,36.75
2022-12-18T12:40:53.891Z,34.80
2022-12-18T12:43:33.370Z,37.30
2022-12-18T12:46:07.826Z,27.33
2022-12-18T12:48:44.551Z,31.67
2022-12-18T12:51:21.653Z,34.97
2022-12-18T12:53:55.532Z,32.17
2022-12-18T12:56:29.955Z,29.13
2022-12-18T12:59:11.548Z,21.45
2022-12-18T13:01:50.959Z,33.05
2022-12-18T13:04:29.055Z,29.55
2022-12-18T13:07:06.679Z,32.08
2022-12-18T13:10:17.760Z,33.72
2022-12-18T13:12:58.825Z,35.80
2022-12-18T13:15:36.481Z,29.77
2022-12-18T13:18:18.223Z,31.85
2022-12-18T13:20:53.702Z,32.03
2022-12-18T13:23:31.617Z,31.27
2022-12-18T13:26:02.904Z,30.10
2022-12-18T13:29:00.566Z,24.95
2022-12-18T13:32:08.848Z,24.65
2022-12-18T13:34:38.990Z,26.08
2022-12-18T13:37:54.205Z,27.55
2022-12-18T13:40:57.443Z,26.45
2022-12-18T13:43:32.000Z,33.83
2022-12-18T13:46:18.723Z,29.55
2022-12-18T13:48:55.567Z,30.15
2022-12-18T13:51:28.483Z,22.05
2022-12-18T13:54:09.405Z,41.17
2022-12-18T13:56:46.193Z,31.65
2022-12-18T13:59:23.003Z,30.15
2022-12-18T14:01:58.095Z,31.35
2022-12-18T14:04:30.765Z,22.67
2022-12-18T14:07:04.906Z,30.90
2022-12-18T14:09:38.893Z,37.33
2022-12-18T14:12:35.509Z,18.65
2022-12-18T14:15:07.346Z,33.78
2022-12-18T14:17:38.765Z,11.38
2022-12-18T14:20:16.800Z,32.30
2022-12-18T14:22:51.137Z,28.35
2022-12-18T14:25:26.440Z,26.88
2022-12-18T14:28:10.971Z,30.45
2022-12-18T14:30:45.865Z,20.35
2022-12-18T14:33:19.515Z,27.38
2022-12-18T14:35:59.856Z,26.02
2022-12-18T14:38:31.811Z,33.47
2022-12-18T14:41:03.254Z,20.55
2022-12-18T14:43:35.561Z,23.75
2022-12-18T14:46:08.255Z,34.40
2022-12-18T14:49:18.707Z,31.02
2022-12-18T14:51:50.871Z,39.63
2022-12-18T14:54:22.274Z,38.15
2022-12-18T14:56:53.713Z,18.88
2022-12-18T14:59:25.254Z,31.02
2022-12-18T15:02:02.985Z,26.60
2022-12-18T15:04:36.932Z,24.90
2022-12-18T15:07:17.612Z,28.42
2022-12-18T15:10:05.878Z,33.95
2022-12-18T15:12:39.174Z,19.60
2022-12-18T15:15:42.396Z,31.95
2022-12-18T15:18:16.595Z,21.77
2022-12-18T15:23:21.779Z,23.02
2022-12-18T15:25:57.763Z,22.77
2022-12-18T15:28:31.562Z,29.02
2022-12-18T15:31:06.053Z,27.38
2022-12-18T15:33:37.004Z,19.25
2022-12-18T15:36:11.545Z,30.40
2022-12-18T15:38:40.534Z,28.23
2022-12-18T15:41:17.842Z,30.50
2022-12-18T15:43:51.712Z,29.85
2022-12-18T15:46:23.396Z,34.85
2022-12-18T15:48:59.631Z,21.30
2022-12-18T15:51:35.224Z,32.47
2022-12-18T15:54:06.269Z,29.55
2022-12-18T15:56:52.585Z,30.83
2022-12-18T15:59:22.538Z,29.67
2022-12-18T16:02:23.854Z,52.17
2022-12-18T16:04:55.181Z,13.40
2022-12-18T16:07:28.088Z,31.58
2022-12-18T16:10:06.653Z,32.85
2022-12-18T16:12:38.096Z,33.58
2022-12-18T16:15:26.930Z,28.90
2022-12-18T16:17:56.040Z,34.75
2022-12-18T16:20:27.906Z,29.08
2022-12-18T16:22:58.555Z,34.70
2022-12-18T16:25:37.475Z,25.95
2022-12-18T16:28:09.058Z,34.47
2022-12-18T16:30:41.621Z,27.95
2022-12-18T16:33:12.137Z,29.58
2022-12-18T16:35:45.588Z,25.83
2022-12-18T16:38:15.971Z,30.17
2022-12-18T16:41:00.770Z,31.73
2022-12-18T16:43:33.084Z,35.10
2022-12-18T16:46:04.932Z,28.85
2022-12-18T16:48:38.662Z,32.90
2022-12-18T16:51:11.129Z,25.17
2022-12-18T16:56:18.399Z,32.97
2022-12-18T16:58:52.684Z,21.30
2022-12-18T17:01:22.031Z,29.50
2022-12-18T17:03:55.377Z,31.55
2022-12-18T17:06:25.576Z,28.08
2022-12-18T17:09:01.262Z,29.85
2022-12-18T17:11:34.431Z,23.67
2022-12-18T17:14:08.439Z,36.15
2022-12-18T17:16:37.360Z,32.63
2022-12-18T17:19:10.978Z,33.33
2022-12-18T17:21:49.887Z,31.48
2022-12-18T17:24:20.829Z,30.95
2022-12-18T17:26:52.273Z,41.65
2022-12-18T17:29:22.015Z,35.30
2022-12-18T17:31:53.180Z,36.25
2022-12-18T17:34:24.495Z,38.60
2022-12-18T17:36:53.950Z,32.15
2022-12-18T17:39:28.756Z,27.33
2022-12-18T17:41:57.712Z,35.92
2022-12-18T17:44:27.230Z,32.97
2022-12-18T17:46:56.578Z,29.23
2022-12-18T17:49:26.146Z,30.95
2022-12-18T17:51:54.981Z,32.90
2022-12-18T17:54:24.112Z,35.30
2022-12-18T17:56:54.853Z,34.28
2022-12-18T17:59:26.534Z,35.80
2022-12-18T18:01:55.987Z,38.45
2022-12-18T18:04:25.164Z,33.05
2022-12-18T18:06:53.966Z,33.30
2022-12-18T18:09:22.897Z,35.00
2022-12-18T18:12:09.561Z,34.92
2022-12-18T18:14:40.170Z,33.80
2022-12-18T18:17:09.657Z,28.92
2022-12-18T18:19:39.355Z,30.75
2022-12-18T18:22:09.770Z,35.08
2022-12-18T18:24:38.712Z,33.05
2022-12-18T18:27:07.635Z,30.60
2022-12-18T18:29:36.798Z,35.13
2022-12-18T18:32:07.457Z,33.90
2022-12-18T18:34:36.654Z,35.53
2022-12-18T18:37:05.984Z,36.05
2022-12-18T18:39:37.756Z,33.42
2022-12-18T18:42:06.769Z,35.65
2022-12-18T18:44:35.575Z,32.47
2022-12-18T18:47:09.608Z,48.10
2022-12-18T18:49:38.457Z,39.78
2022-12-18T18:52:08.416Z,35.92
2022-12-18T18:55:11.636Z,46.88
2022-12-18T18:58:17.549Z,38.00
2022-12-18T19:00:46.829Z,40.97
2022-12-18T19:03:21.228Z,34.50
2022-12-18T19:05:53.495Z,39.30
2022-12-18T19:08:22.283Z,37.65
2022-12-18T19:10:58.112Z,38.45
2022-12-18T19:13:28.649Z,43.50
2022-12-18T19:16:04.907Z,40.17
2022-12-18T19:18:38.126Z,37.20
2022-12-18T19:21:09.354Z,42.35
2022-12-18T19:23:46.966Z,40.53
2022-12-18T19:26:27.365Z,33.78
2022-12-18T19:29:02.714Z,38.20
2022-12-18T19:31:35.715Z,35.83
2022-12-18T19:34:08.029Z,31.27
2022-12-18T19:36:39.521Z,39.55
2022-12-18T19:39:12.324Z,30.50
2022-12-18T19:41:41.819Z,39.38
2022-12-18T19:44:13.377Z,39.70
2022-12-18T19:46:42.991Z,39.05
2022-12-18T19:49:18.072Z,29.98
2022-12-18T19:51:50.517Z,36.20
2022-12-18T19:54:19.845Z,36.03
2022-12-18T19:56:52.914Z,39.78
2022-12-18T19:59:22.186Z,39.38
2022-12-18T20:01:54.580Z,51.28
2022-12-18T20:04:25.453Z,48.95
2022-12-18T20:06:55.108Z,38.17
2022-12-18T20:09:24.575Z,41.55
2022-12-18T20:11:54.598Z,41.35
2022-12-18T20:14:23.926Z,41.45
2022-12-18T20:16:53.499Z,38.03
2022-12-18T20:19:25.049Z,37.42
2022-12-18T20:21:53.785Z,35.85
2022-12-18T20:24:22.832Z,43.03
2022-12-18T20:26:51.477Z,30.17
2022-12-18T20:29:20.347Z,33.97
2022-12-18T20:31:49.177Z,42.08
2022-12-18T20:34:18.410Z,45.90
2022-12-18T20:36:49.479Z,38.83
2022-12-18T20:39:18.796Z,34.88
2022-12-18T20:41:48.033Z,41.13
2022-12-18T20:44:22.348Z,20.15
2022-12-18T20:46:54.651Z,40.13
2022-12-18T20:49:24.191Z,29.13
2022-12-18T20:51:56.371Z,41.85
2022-12-18T20:54:29.019Z,41.80
2022-12-18T20:56:58.369Z,42.13
2022-12-18T20:59:27.415Z,34.25
2022-12-18T21:01:56.954Z,47.95
2022-12-18T21:04:26.144Z,41.58
2022-12-18T21:07:02.347Z,38.05
2022-12-18T21:09:37.173Z,44.75
2022-12-18T21:12:30.198Z,45.30
2022-12-18T21:15:09.753Z,47.08
2022-12-18T21:17:44.678Z,74.40
2022-12-18T21:20:17.954Z,32.17
2022-12-18T21:22:49.628Z,41.97
2022-12-18T21:25:19.139Z,41.90
2022-12-18T21:27:50.588Z,27.30
2022-12-18T21:30:19.935Z,55.53
2022-12-18T21:32:49.371Z,47.60
2022-12-18T21:35:18.259Z,33.70
2022-12-18T21:37:50.786Z,44.90
2022-12-18T21:40:19.896Z,43.85
2022-12-18T21:43:06.365Z,44.38
2022-12-18T21:45:35.768Z,38.60
2022-12-18T21:48:04.583Z,43.92
2022-12-18T21:50:34.788Z,41.65
2022-12-18T21:53:05.428Z,33.65
2022-12-18T21:55:34.740Z,47.05
2022-12-18T21:58:06.080Z,49.72
2022-12-18T22:01:04.350Z,39.30
2022-12-18T22:03:33.730Z,36.25
2022-12-18T22:06:09.181Z,42.13
2022-12-18T22:08:43.764Z,55.92
2022-12-18T22:11:13.852Z,38.33
2022-12-18T22:13:43.567Z,45.80
2022-12-18T22:16:12.368Z,44.58
2022-12-18T22:18:41.138Z,36.55
2022-12-18T22:21:29.405Z,47.70
2022-12-18T22:24:01.765Z,35.45
2022-12-18T22:26:37.862Z,48.78
2022-12-18T22:29:26.068Z,55.67
2022-12-18T22:31:55.284Z,45.15
2022-12-18T22:34:24.423Z,53.85
2022-12-18T22:36:53.498Z,50.75
2022-12-18T22:39:25.729Z,49.63
2022-12-18T22:41:57.741Z,35.05
2022-12-18T22:44:26.527Z,34.17
2022-12-18T22:47:06.315Z,40.10
2022-12-18T22:49:37.197Z,43.47
2022-12-18T22:52:09.368Z,43.10
2022-12-18T22:54:39.842Z,53.97
2022-12-18T22:57:11.187Z,54.83
2022-12-18T22:59:39.887Z,42.42
2022-12-18T23:02:10.904Z,45.65
2022-12-18T23:04:45.251Z,40.70
2022-12-18T23:07:17.362Z,45.53
2022-12-18T23:09:47.854Z,48.20
2022-12-18T23:12:21.621Z,34.43
2022-12-18T23:14:50.941Z,41.10
2022-12-18T23:17:19.914Z,44.30
2022-12-18T23:19:49.555Z,34.50
2022-12-18T23:22:18.647Z,56.88
2022-12-18T23:24:48.913Z,51.60
2022-12-18T23:27:17.654Z,55.75
2022-12-18T23:29:46.340Z,34.58
2022-12-18T23:32:16.558Z,53.72
2022-12-18T23:34:45.910Z,49.45
2022-12-18T23:37:35.370Z,54.80
2022-12-18T23:40:05.402Z,45.33
2022-12-18T23:42:34.143Z,62.72
2022-12-18T23:45:03.922Z,56.58
2022-12-18T23:47:41.266Z,59.42
2022-12-18T23:50:11.788Z,60.58
2022-12-18T23:55:13.321Z,57.35
2022-12-18T23:57:41.979Z,46.63
